Time;durP1;ratioP1;P1;durP2;ratioP2;P2;SDS_P1;SDS_P2;PMS_P1;PMS_P2;Temp;Humidity;BMP_temperature;BMP_pressure;BME280_temperature;BME280_humidity;BME280_pressure;Samples;Min_cycle;Max_cycle;Signal;HPM_P1;HPM_P2
2021/04/02 00:00:24;;;;;;;18.60;7.43;;;9.70;88.60;;;;;;5081144;28;20428;-61
2021/04/02 00:02:50;;;;;;;13.60;7.90;;;9.70;89.20;;;;;;5069729;28;20166;-60
2021/04/02 00:05:18;;;;;;;11.03;7.23;;;9.60;89.50;;;;;;5081286;28;20616;-60
2021/04/02 00:07:44;;;;;;;16.67;7.77;;;9.60;89.90;;;;;;5079608;28;20320;-61
2021/04/02 00:10:19;;;;;;;18.80;7.80;;;9.50;90.10;;;;;;5089113;28;20424;-60
2021/04/02 00:12:46;;;;;;;9.43;7.10;;;9.50;90.20;;;;;;5086000;28;20463;-61
2021/04/02 00:15:21;;;;;;;11.10;6.70;;;9.50;90.20;;;;;;5082854;28;20464;-60
2021/04/02 00:17:47;;;;;;;18.13;7.53;;;9.40;90.00;;;;;;5085341;28;20415;-61
2021/04/02 00:20:16;;;;;;;11.63;7.57;;;9.40;90.10;;;;;;5092328;28;20466;-60
2021/04/02 00:22:43;;;;;;;12.63;6.90;;;9.30;90.30;;;;;;5091042;28;20454;-62
2021/04/02 00:25:10;;;;;;;10.80;7.67;;;9.20;90.60;;;;;;5107007;28;20459;-61
2021/04/02 00:27:36;;;;;;;11.90;7.20;;;9.10;91.10;;;;;;5091711;28;20507;-59
2021/04/02 00:30:19;;;;;;;14.27;6.97;;;9.10;91.60;;;;;;5094139;28;20447;-60
2021/04/02 00:32:45;;;;;;;14.73;7.20;;;9.00;92.00;;;;;;5080582;28;20227;-61
2021/04/02 00:35:13;;;;;;;18.17;7.90;;;8.90;92.40;;;;;;5088816;28;20451;-60
2021/04/02 00:37:40;;;;;;;14.30;8.00;;;8.80;92.70;;;;;;5084653;28;20190;-61
2021/04/02 00:40:17;;;;;;;16.27;7.10;;;8.80;92.80;;;;;;5080286;28;20416;-60
2021/04/02 00:42:43;;;;;;;12.93;7.60;;;8.80;92.90;;;;;;5087288;28;20786;-60
2021/04/02 00:45:10;;;;;;;17.30;7.90;;;8.80;92.90;;;;;;5079077;28;20507;-60
2021/04/02 00:47:35;;;;;;;12.17;6.97;;;8.80;92.80;;;;;;5084697;28;20409;-60
2021/04/02 00:50:04;;;;;;;16.50;7.53;;;8.90;92.90;;;;;;5079839;28;20967;-60
2021/04/02 00:52:29;;;;;;;20.37;7.97;;;8.80;92.70;;;;;;5075949;28;20174;-61
2021/04/02 00:54:55;;;;;;;13.90;7.40;;;8.80;92.70;;;;;;5085850;28;20465;-60
2021/04/02 00:57:21;;;;;;;19.53;7.17;;;8.80;92.50;;;;;;5084384;28;20198;-60
2021/04/02 00:59:46;;;;;;;19.30;7.80;;;8.80;92.60;;;;;;5085008;28;20177;-60
2021/04/02 01:02:12;;;;;;;17.67;8.70;;;8.80;92.70;;;;;;5075064;28;20175;-61
2021/04/02 01:04:38;;;;;;;13.57;8.47;;;8.80;92.80;;;;;;5083748;28;20216;-60
2021/04/02 01:07:04;;;;;;;18.90;8.50;;;8.70;92.60;;;;;;5088475;28;20209;-61
2021/04/02 01:09:29;;;;;;;10.50;7.87;;;8.70;92.80;;;;;;5086565;28;20170;-59
2021/04/02 01:11:55;;;;;;;15.37;8.10;;;8.70;92.80;;;;;;5078341;28;20435;-60
2021/04/02 01:14:22;;;;;;;16.03;7.70;;;8.70;92.70;;;;;;5086144;28;20174;-60
2021/04/02 01:16:48;;;;;;;12.33;7.57;;;8.60;92.50;;;;;;5085330;28;20208;-60
2021/04/02 01:19:22;;;;;;;19.57;7.70;;;8.60;92.60;;;;;;5084775;28;20420;-60
2021/04/02 01:21:57;;;;;;;12.73;7.47;;;8.50;92.50;;;;;;5098645;28;20181;-60
2021/04/02 01:24:23;;;;;;;12.10;7.87;;;8.50;92.50;;;;;;5088859;28;20928;-59
2021/04/02 01:27:12;;;;;;;14.00;8.83;;;8.50;92.60;;;;;;5090540;28;20569;-60
2021/04/02 01:29:47;;;;;;;14.97;8.67;;;8.40;92.90;;;;;;5088482;28;20723;-60
2021/04/02 01:32:20;;;;;;;19.03;9.17;;;8.40;93.10;;;;;;5094968;28;20426;-60
2021/04/02 01:34:52;;;;;;;34.97;16.90;;;8.40;93.10;;;;;;5088816;28;20488;-60
2021/04/02 01:37:23;;;;;;;25.33;10.70;;;8.40;93.20;;;;;;5091012;28;20475;-60
2021/04/02 01:39:50;;;;;;;21.67;10.00;;;8.40;93.10;;;;;;5090503;28;20817;-60
2021/04/02 01:42:21;;;;;;;18.73;9.70;;;8.40;93.30;;;;;;5088990;28;20428;-60
2021/04/02 01:44:48;;;;;;;29.70;9.77;;;8.40;93.40;;;;;;5084641;28;20454;-61
2021/04/02 01:47:15;;;;;;;17.30;9.00;;;8.40;93.40;;;;;;5086646;28;20444;-60
2021/04/02 01:49:42;;;;;;;16.80;9.43;;;8.30;93.50;;;;;;5084579;28;20487;-60
2021/04/02 01:52:10;;;;;;;13.57;8.93;;;8.30;93.60;;;;;;5091365;28;20841;-60
2021/04/02 01:54:36;;;;;;;14.97;8.67;;;8.30;93.90;;;;;;5085110;28;20448;-60
2021/04/02 01:57:04;;;;;;;13.60;9.20;;;8.30;94.10;;;;;;5087995;28;20569;-60
2021/04/02 01:59:30;;;;;;;18.90;9.23;;;8.20;94.00;;;;;;5088455;28;20934;-60
2021/04/02 02:01:58;;;;;;;17.27;9.73;;;8.30;94.00;;;;;;5085055;28;20438;-60
2021/04/02 02:04:26;;;;;;;13.97;8.33;;;8.20;93.90;;;;;;5081959;28;20808;-60
2021/04/02 02:06:53;;;;;;;22.53;9.93;;;8.20;93.80;;;;;;5093466;28;20450;-60
2021/04/02 02:09:27;;;;;;;20.03;8.83;;;8.20;93.70;;;;;;5079391;28;20965;-60
2021/04/02 02:11:58;;;;;;;23.77;9.43;;;8.20;93.50;;;;;;5103211;28;20545;-60
2021/04/02 02:14:28;;;;;;;20.23;9.13;;;8.10;93.50;;;;;;5091790;28;20512;-60
2021/04/02 02:16:56;;;;;;;18.47;9.47;;;8.10;93.50;;;;;;5103850;27;20619;-60
2021/04/02 02:19:25;;;;;;;18.53;9.27;;;8.00;93.60;;;;;;5086625;28;20431;-59
2021/04/02 02:21:55;;;;;;;18.47;9.03;;;8.00;93.70;;;;;;5087951;28;20428;-60
2021/04/02 02:24:21;;;;;;;14.80;8.57;;;7.90;93.70;;;;;;5084285;28;20788;-60
2021/04/02 02:26:47;;;;;;;14.83;9.60;;;7.90;93.60;;;;;;5087677;28;20447;-60
2021/04/02 02:29:14;;;;;;;17.03;9.20;;;7.80;93.50;;;;;;5090761;28;20449;-60
2021/04/02 02:31:41;;;;;;;14.33;8.53;;;7.80;93.70;;;;;;5085684;28;20188;-60
2021/04/02 02:34:07;;;;;;;18.70;9.00;;;7.70;93.70;;;;;;5083826;28;20431;-60
2021/04/02 02:36:34;;;;;;;17.33;9.50;;;7.70;93.80;;;;;;5076823;28;20474;-59
2021/04/02 02:39:01;;;;;;;15.23;8.80;;;7.60;93.90;;;;;;5086681;28;20646;-60
2021/04/02 02:41:29;;;;;;;14.20;8.83;;;7.60;94.00;;;;;;5087472;28;20443;-60
2021/04/02 02:43:56;;;;;;;17.47;8.80;;;7.60;94.00;;;;;;5091670;28;20509;-61
2021/04/02 02:46:25;;;;;;;20.27;9.37;;;7.50;93.90;;;;;;5104904;27;20977;-60
2021/04/02 02:48:54;;;;;;;19.67;10.07;;;7.50;94.30;;;;;;5088149;28;20470;-60
2021/04/02 02:51:21;;;;;;;16.23;8.83;;;7.50;94.30;;;;;;5066800;28;20832;-59
2021/04/02 02:53:48;;;;;;;26.13;9.70;;;7.40;94.40;;;;;;5092878;28;20955;-60
2021/04/02 02:56:16;;;;;;;20.60;9.57;;;7.40;94.50;;;;;;5088390;28;21064;-60
2021/04/02 02:58:43;;;;;;;22.87;9.50;;;7.40;94.80;;;;;;5084341;28;20432;-60
2021/04/02 03:01:11;;;;;;;14.47;8.87;;;7.40;94.80;;;;;;5082977;28;20867;-60
2021/04/02 03:03:38;;;;;;;17.40;9.63;;;7.30;94.60;;;;;;5076864;28;21053;-59
2021/04/02 03:06:05;;;;;;;19.70;9.57;;;7.30;94.80;;;;;;5086922;28;20821;-59
2021/04/02 03:08:39;;;;;;;16.90;9.07;;;7.20;95.00;;;;;;5085564;28;20496;-60
2021/04/02 03:11:09;;;;;;;13.93;9.33;;;7.20;95.40;;;;;;5086655;28;20427;-60
2021/04/02 03:13:36;;;;;;;18.30;9.60;;;7.10;95.50;;;;;;5087914;28;20439;-60
2021/04/02 03:16:02;;;;;;;16.37;9.33;;;7.00;95.80;;;;;;5084064;28;20466;-60
2021/04/02 03:18:28;;;;;;;18.07;9.13;;;7.00;96.10;;;;;;5076204;28;20528;-60
2021/04/02 03:20:55;;;;;;;22.23;9.30;;;6.90;96.20;;;;;;5078024;28;20434;-60
2021/04/02 03:23:22;;;;;;;18.33;8.37;;;6.90;96.60;;;;;;5085950;28;20500;-61
2021/04/02 03:25:49;;;;;;;21.07;9.37;;;6.80;96.70;;;;;;5091702;28;20520;-60
2021/04/02 03:28:19;;;;;;;18.13;9.30;;;6.80;97.00;;;;;;5083374;28;20782;-60
2021/04/02 03:30:46;;;;;;;26.50;9.77;;;6.80;97.00;;;;;;5083675;28;20430;-60
2021/04/02 03:33:18;;;;;;;25.07;9.73;;;6.80;97.10;;;;;;5077997;28;20464;-61
2021/04/02 03:35:45;;;;;;;19.70;8.60;;;6.80;97.10;;;;;;5079749;28;20463;-61
2021/04/02 03:38:14;;;;;;;19.90;9.50;;;6.80;97.10;;;;;;5084964;28;20439;-59
2021/04/02 03:40:40;;;;;;;23.97;10.00;;;6.80;97.20;;;;;;5083607;28;20424;-60
2021/04/02 03:43:08;;;;;;;18.13;9.80;;;6.80;97.00;;;;;;5086931;28;20424;-60
2021/04/02 03:45:37;;;;;;;16.90;9.03;;;6.80;96.90;;;;;;5079884;28;20451;-60
2021/04/02 03:48:06;;;;;;;19.80;9.30;;;6.80;97.00;;;;;;5085350;28;20428;-59
2021/04/02 03:50:35;;;;;;;16.57;10.03;;;6.80;97.40;;;;;;5085559;28;20428;-60
2021/04/02 03:53:07;;;;;;;19.87;10.43;;;6.70;97.50;;;;;;5086886;28;20486;-60
2021/04/02 03:55:35;;;;;;;22.50;10.03;;;6.70;97.70;;;;;;5086258;28;21003;-59
2021/04/02 03:58:02;;;;;;;20.07;10.43;;;6.80;97.50;;;;;;5083619;28;20431;-60
2021/04/02 04:00:34;;;;;;;31.87;9.80;;;6.80;97.50;;;;;;5083278;28;20456;-60
2021/04/02 04:03:02;;;;;;;16.37;8.47;;;6.80;97.30;;;;;;5087346;28;20447;-60
2021/04/02 04:05:29;;;;;;;22.40;9.40;;;6.80;97.20;;;;;;5082033;28;20461;-60
2021/04/02 04:07:57;;;;;;;16.03;9.70;;;6.80;96.90;;;;;;5079953;28;20427;-60
2021/04/02 04:10:24;;;;;;;24.17;10.13;;;6.80;96.90;;;;;;5082136;28;20794;-60
2021/04/02 04:12:54;;;;;;;19.20;8.60;;;6.80;96.70;;;;;;5086827;28;21108;-60
2021/04/02 04:15:22;;;;;;;14.17;8.33;;;6.70;96.50;;;;;;5085908;28;20508;-60
2021/04/02 04:17:49;;;;;;;15.20;9.57;;;6.70;96.60;;;;;;5083398;28;20436;-60
2021/04/02 04:20:17;;;;;;;16.87;9.13;;;6.70;96.60;;;;;;5081498;28;20435;-60
2021/04/02 04:22:44;;;;;;;21.30;10.00;;;6.60;96.40;;;;;;5089576;28;20424;-60
2021/04/02 04:25:11;;;;;;;16.30;8.70;;;6.60;96.50;;;;;;5085309;28;20546;-60
2021/04/02 04:27:44;;;;;;;21.33;8.97;;;6.60;96.60;;;;;;5084385;28;20547;-60
2021/04/02 04:30:12;;;;;;;16.93;9.87;;;6.50;96.70;;;;;;5079460;28;20431;-60
2021/04/02 04:32:40;;;;;;;22.27;9.77;;;6.50;96.90;;;;;;5082176;28;20446;-60
2021/04/02 04:35:10;;;;;;;24.03;9.90;;;6.50;97.20;;;;;;5085321;28;20447;-59
2021/04/02 04:37:37;;;;;;;19.40;9.90;;;6.50;97.40;;;;;;5082377;28;20431;-60
2021/04/02 04:40:04;;;;;;;25.07;11.27;;;6.50;97.20;;;;;;5085441;28;20535;-60
2021/04/02 04:42:31;;;;;;;24.03;9.93;;;6.50;97.20;;;;;;5080678;28;20435;-60
2021/04/02 04:44:58;;;;;;;20.27;10.20;;;6.50;97.20;;;;;;5087507;28;20466;-59
2021/04/02 04:47:24;;;;;;;17.40;9.47;;;6.50;97.20;;;;;;5085424;28;20443;-60
2021/04/02 04:49:50;;;;;;;22.97;9.37;;;6.50;97.10;;;;;;5084565;28;20435;-60
2021/04/02 04:52:18;;;;;;;18.40;9.93;;;6.50;97.00;;;;;;5089461;28;20454;-60
2021/04/02 04:54:49;;;;;;;19.30;9.93;;;6.40;96.80;;;;;;5086441;28;20232;-59
2021/04/02 04:57:16;;;;;;;23.57;10.60;;;6.40;97.00;;;;;;5087085;28;20607;-59
2021/04/02 04:59:43;;;;;;;22.13;10.47;;;6.40;97.10;;;;;;5086165;28;20434;-60
2021/04/02 05:02:11;;;;;;;24.17;10.67;;;6.40;97.10;;;;;;5088330;28;20506;-59
2021/04/02 05:04:39;;;;;;;18.23;10.47;;;6.40;97.50;;;;;;5076290;28;20434;-59
2021/04/02 05:07:07;;;;;;;21.30;11.20;;;6.40;97.50;;;;;;5084161;28;20881;-60
2021/04/02 05:09:33;;;;;;;16.27;10.87;;;6.40;97.40;;;;;;5089705;28;21096;-60
2021/04/02 05:11:59;;;;;;;23.13;11.80;;;6.40;97.30;;;;;;5085421;28;20431;-60
2021/04/02 05:14:26;;;;;;;30.47;12.30;;;6.40;97.20;;;;;;5087259;28;20423;-60
2021/04/02 05:16:53;;;;;;;21.07;10.40;;;6.40;97.10;;;;;;5087652;28;20486;-60
2021/04/02 05:19:20;;;;;;;17.77;9.80;;;6.40;97.10;;;;;;5074205;28;20490;-60
2021/04/02 05:21:46;;;;;;;26.17;10.80;;;6.30;96.90;;;;;;5105030;22;20510;-59
2021/04/02 05:24:12;;;;;;;17.30;9.50;;;6.30;96.80;;;;;;5069955;28;20429;-59
2021/04/02 05:26:39;;;;;;;18.80;10.60;;;6.30;96.70;;;;;;5071694;28;20428;-60
2021/04/02 05:29:05;;;;;;;17.83;10.37;;;6.30;96.80;;;;;;5046508;28;20426;-59
2021/04/02 05:31:32;;;;;;;16.93;10.63;;;6.30;96.80;;;;;;5063050;28;20456;-60
2021/04/02 05:33:58;;;;;;;21.77;10.60;;;6.30;96.60;;;;;;5067332;28;20431;-60
2021/04/02 05:36:23;;;;;;;26.10;12.17;;;6.20;96.60;;;;;;5060567;28;20535;-58
2021/04/02 05:38:50;;;;;;;23.47;14.20;;;6.20;96.70;;;;;;5064665;28;20178;-59
2021/04/02 05:41:24;;;;;;;17.50;10.83;;;6.20;96.90;;;;;;5064012;28;20202;-56
2021/04/02 05:43:55;;;;;;;26.67;12.07;;;6.20;97.10;;;;;;5066893;28;20429;-59
2021/04/02 05:46:25;;;;;;;22.43;12.07;;;6.20;97.40;;;;;;5064451;28;20424;-61
2021/04/02 05:49:04;;;;;;;19.73;11.97;;;6.30;97.80;;;;;;5064340;28;20436;-59
2021/04/02 05:51:31;;;;;;;22.10;12.17;;;6.30;97.90;;;;;;5065193;28;20452;-58
2021/04/02 05:53:58;;;;;;;20.00;10.80;;;6.40;98.00;;;;;;5065492;28;20444;-59
2021/04/02 05:56:25;;;;;;;20.50;11.50;;;6.50;98.00;;;;;;5064934;28;20501;-55
2021/04/02 05:58:51;;;;;;;23.00;11.30;;;6.50;97.70;;;;;;5064353;28;20424;-58
2021/04/02 06:01:18;;;;;;;24.30;11.40;;;6.60;97.40;;;;;;5060530;28;20456;-57
2021/04/02 06:03:44;;;;;;;18.93;11.37;;;6.70;97.20;;;;;;5061239;28;20427;-59
2021/04/02 06:06:14;;;;;;;21.80;11.87;;;6.70;97.30;;;;;;5066035;28;20424;-58
2021/04/02 06:08:45;;;;;;;19.03;11.30;;;6.80;97.30;;;;;;5063619;28;20971;-58
2021/04/02 06:11:11;;;;;;;23.90;11.60;;;7.00;97.30;;;;;;5067237;28;20444;-57
2021/04/02 06:13:38;;;;;;;24.33;12.40;;;7.20;96.60;;;;;;5063419;28;20447;-57
2021/04/02 06:16:04;;;;;;;23.60;11.80;;;7.30;96.30;;;;;;5063974;28;20502;-59
2021/04/02 06:18:30;;;;;;;20.90;11.63;;;7.40;96.30;;;;;;5065744;28;20429;-57
2021/04/02 06:20:56;;;;;;;20.63;10.30;;;7.30;96.10;;;;;;5067368;28;20509;-59
2021/04/02 06:23:24;;;;;;;25.20;13.47;;;7.30;96.10;;;;;;5059972;28;20237;-56
2021/04/02 06:25:58;;;;;;;21.10;12.60;;;7.30;96.30;;;;;;5059137;28;20424;-59
2021/04/02 06:28:28;;;;;;;26.20;13.53;;;7.30;96.70;;;;;;5065395;28;20447;-56
2021/04/02 06:31:01;;;;;;;24.10;13.17;;;7.30;97.10;;;;;;5060238;28;20533;-58
2021/04/02 06:33:45;;;;;;;25.20;13.50;;;7.30;97.20;;;;;;5063776;28;20428;-59
2021/04/02 06:36:12;;;;;;;25.13;13.70;;;7.40;97.00;;;;;;5064036;28;20464;-59
2021/04/02 06:38:41;;;;;;;26.73;13.70;;;7.40;96.90;;;;;;5067904;28;20503;-58
2021/04/02 06:41:07;;;;;;;33.53;14.40;;;7.50;96.80;;;;;;5062143;28;20445;-58
2021/04/02 06:43:35;;;;;;;28.47;13.00;;;7.60;96.80;;;;;;5062037;28;20433;-60
2021/04/02 06:46:05;;;;;;;25.07;13.07;;;7.70;96.70;;;;;;5055716;28;20205;-58
2021/04/02 06:48:31;;;;;;;25.50;13.50;;;7.80;96.50;;;;;;5061215;28;20474;-58
2021/04/02 06:50:57;;;;;;;22.10;13.23;;;7.90;96.60;;;;;;5060989;28;20445;-60
2021/04/02 06:53:24;;;;;;;28.63;14.53;;;7.90;96.50;;;;;;5053301;28;20187;-58
2021/04/02 06:55:52;;;;;;;30.13;15.63;;;8.10;96.40;;;;;;5055314;28;20714;-58
2021/04/02 06:58:22;;;;;;;27.17;15.37;;;8.10;95.90;;;;;;5054100;28;20421;-58
2021/04/02 07:00:51;;;;;;;28.53;13.20;;;8.10;96.10;;;;;;5058716;28;20416;-58
2021/04/02 07:03:18;;;;;;;24.53;13.07;;;8.10;96.10;;;;;;5068266;28;20436;-59
2021/04/02 07:05:45;;;;;;;39.47;15.70;;;8.20;96.10;;;;;;5067153;28;20925;-61
2021/04/02 07:08:17;;;;;;;27.97;15.37;;;8.30;95.80;;;;;;5061844;28;20441;-58
2021/04/02 07:10:44;;;;;;;32.73;14.33;;;8.40;95.90;;;;;;5048039;28;20436;-62
2021/04/02 07:13:12;;;;;;;29.70;14.43;;;8.50;96.00;;;;;;5053294;28;20451;-60
2021/04/02 07:15:39;;;;;;;29.90;14.37;;;8.60;95.90;;;;;;5065628;28;20503;-61
2021/04/02 07:18:07;;;;;;;29.03;14.00;;;8.80;95.70;;;;;;5061872;28;20421;-59
2021/04/02 07:20:33;;;;;;;28.03;15.90;;;8.90;95.80;;;;;;5057082;28;21095;-58
2021/04/02 07:23:00;;;;;;;25.50;14.00;;;9.00;95.80;;;;;;5056175;28;20527;-59
2021/04/02 07:25:26;;;;;;;28.93;14.90;;;9.20;95.50;;;;;;5055737;28;20421;-62
2021/04/02 07:27:51;;;;;;;27.67;14.43;;;9.30;95.00;;;;;;5053546;28;20487;-62
2021/04/02 07:30:21;;;;;;;29.30;14.57;;;9.40;94.90;;;;;;5055701;28;20699;-59
2021/04/02 07:32:48;;;;;;;34.93;15.67;;;9.50;94.50;;;;;;5057829;28;20272;-59
2021/04/02 07:35:22;;;;;;;30.13;15.20;;;9.60;94.40;;;;;;5064831;28;20485;-60
2021/04/02 07:37:52;;;;;;;32.27;15.57;;;9.70;94.50;;;;;;5057092;28;21171;-57
2021/04/02 07:40:23;;;;;;;31.77;17.50;;;9.80;94.10;;;;;;5059699;28;20445;-59
2021/04/02 07:42:53;;;;;;;32.10;17.57;;;9.90;93.70;;;;;;5058765;28;20455;-60
2021/04/02 07:45:22;;;;;;;35.60;17.67;;;10.10;93.00;;;;;;5073809;28;21097;-60
2021/04/02 07:47:53;;;;;;;38.53;19.60;;;10.20;92.80;;;;;;5058295;28;20909;-61
2021/04/02 07:50:34;;;;;;;47.30;20.67;;;10.30;93.00;;;;;;5057640;28;22746;-60
2021/04/02 07:55:48;;;;;;;44.30;21.40;;;10.60;92.80;;;;;;5960818;22;20495;-60
2021/04/02 07:58:26;;;;;;;40.40;22.73;;;10.70;92.60;;;;;;5043779;28;20493;-60
2021/04/02 08:00:54;;;;;;;54.80;26.80;;;10.80;92.40;;;;;;5057512;28;20425;-60
2021/04/02 08:03:22;;;;;;;69.10;27.60;;;11.00;92.50;;;;;;5062473;28;20876;-61
2021/04/02 08:05:53;;;;;;;63.23;28.50;;;11.20;92.30;;;;;;5067900;28;20476;-60
2021/04/02 08:08:19;;;;;;;68.90;30.53;;;11.30;92.00;;;;;;5064972;28;20532;-60
2021/04/02 08:11:07;;;;;;;61.37;31.60;;;11.40;91.70;;;;;;5067890;28;20463;-60
2021/04/02 08:13:57;;;;;;;65.00;28.10;;;11.50;91.60;;;;;;5069488;28;21015;-61
2021/04/02 08:16:32;;;;;;;63.57;29.50;;;11.60;91.30;;;;;;5072467;28;20472;-60
2021/04/02 08:19:13;;;;;;;64.40;30.47;;;11.70;91.40;;;;;;5060966;28;20433;-61
2021/04/02 08:21:44;;;;;;;58.63;28.70;;;11.90;91.30;;;;;;5060138;28;20571;-60
2021/04/02 08:24:12;;;;;;;55.80;29.97;;;11.90;91.10;;;;;;5063151;28;20498;-61
2021/04/02 08:26:39;;;;;;;63.57;29.30;;;12.00;90.80;;;;;;5057189;28;20449;-62
2021/04/02 08:29:07;;;;;;;65.17;30.70;;;12.10;90.40;;;;;;5065764;28;20428;-61
2021/04/02 08:31:34;;;;;;;71.60;31.03;;;12.20;88.40;;;;;;5064590;28;20453;-62
2021/04/02 08:34:00;;;;;;;73.90;30.63;;;12.20;89.80;;;;;;5063631;28;20433;-61
2021/04/02 08:36:28;;;;;;;72.10;31.87;;;12.30;90.00;;;;;;5063923;28;20503;-61
2021/04/02 08:38:54;;;;;;;63.50;30.80;;;12.40;89.50;;;;;;5062867;28;20498;-63
2021/04/02 08:41:32;;;;;;;63.83;30.80;;;12.60;87.30;;;;;;5068325;28;20566;-61
2021/04/02 08:43:59;;;;;;;55.93;28.23;;;12.70;86.20;;;;;;5067590;28;20432;-62
2021/04/02 08:46:56;;;;;;;59.77;30.07;;;12.80;85.60;;;;;;5058680;28;20459;-62
2021/04/02 08:49:21;;;;;;;54.80;29.10;;;12.90;85.30;;;;;;5064650;28;20523;-61
2021/04/02 08:51:48;;;;;;;66.03;30.10;;;13.10;85.70;;;;;;5062958;28;20528;-62
2021/04/02 08:54:17;;;;;;;60.43;30.90;;;13.30;84.30;;;;;;5068025;28;20182;-62
2021/04/02 08:56:43;;;;;;;70.17;31.93;;;13.40;79.30;;;;;;5054386;28;20468;-62
2021/04/02 08:59:11;;;;;;;72.80;33.90;;;13.60;78.30;;;;;;5063471;28;20429;-61
2021/04/02 09:01:48;;;;;;;70.23;31.63;;;13.70;76.70;;;;;;5061849;28;20443;-61
2021/04/02 09:04:16;;;;;;;66.50;32.20;;;13.90;74.30;;;;;;5061828;28;20437;-61
2021/04/02 09:06:42;;;;;;;63.87;31.90;;;14.00;71.80;;;;;;5069067;28;20462;-61
2021/04/02 09:09:20;;;;;;;65.00;32.20;;;14.10;67.60;;;;;;5061689;28;20565;-62
2021/04/02 09:11:48;;;;;;;66.30;32.07;;;14.20;66.30;;;;;;5055449;28;20773;-62
2021/04/02 09:14:17;;;;;;;61.97;31.20;;;14.30;67.40;;;;;;5064392;28;20498;-62
2021/04/02 09:16:45;;;;;;;62.23;29.73;;;14.40;65.50;;;;;;5063507;28;21031;-61
2021/04/02 09:19:12;;;;;;;60.60;29.83;;;14.50;65.50;;;;;;5059999;28;20424;-61
2021/04/02 09:21:39;;;;;;;63.07;30.97;;;14.60;66.00;;;;;;5065258;28;20458;-62
2021/04/02 09:24:06;;;;;;;63.60;29.90;;;14.80;67.20;;;;;;5063221;28;20442;-62
2021/04/02 09:26:40;;;;;;;59.37;30.10;;;15.00;66.80;;;;;;5063064;28;20456;-62
2021/04/02 09:29:07;;;;;;;50.20;28.43;;;15.20;65.20;;;;;;5058989;28;20581;-60
2021/04/02 09:31:37;;;;;;;63.23;29.87;;;15.40;64.10;;;;;;5066899;28;20431;-61
2021/04/02 09:34:05;;;;;;;60.03;32.03;;;15.60;63.40;;;;;;5068804;28;20812;-60
2021/04/02 09:36:37;;;;;;;57.90;30.77;;;15.70;60.30;;;;;;5064412;28;20460;-60
2021/04/02 09:39:15;;;;;;;60.43;30.70;;;15.80;60.00;;;;;;5059229;28;20455;-61
2021/04/02 09:41:50;;;;;;;58.20;30.43;;;15.90;60.10;;;;;;5065655;28;20417;-62
2021/04/02 09:44:18;;;;;;;54.70;29.97;;;16.00;59.70;;;;;;5064928;28;20473;-63
2021/04/02 09:46:47;;;;;;;65.80;32.60;;;16.10;61.10;;;;;;5053814;28;20449;-61
2021/04/02 09:49:15;;;;;;;67.30;32.10;;;16.20;60.30;;;;;;5058385;28;20425;-61
2021/04/02 09:51:42;;;;;;;55.67;29.10;;;16.20;58.60;;;;;;5068153;28;20449;-62
2021/04/02 09:54:09;;;;;;;62.30;28.50;;;16.20;58.10;;;;;;5067510;28;20515;-64
2021/04/02 09:56:36;;;;;;;62.07;29.37;;;16.30;59.90;;;;;;5063010;28;20555;-61
2021/04/02 09:59:02;;;;;;;50.90;28.93;;;16.30;59.20;;;;;;5062823;28;20437;-61
2021/04/02 10:01:30;;;;;;;59.37;29.10;;;16.40;58.10;;;;;;5062685;28;20531;-60
2021/04/02 10:03:56;;;;;;;59.33;29.43;;;16.40;58.40;;;;;;5060025;28;20454;-62
2021/04/02 10:06:21;;;;;;;58.77;28.83;;;16.50;58.20;;;;;;5061519;28;20460;-62
2021/04/02 10:08:47;;;;;;;53.43;28.23;;;16.40;56.80;;;;;;5059372;28;20179;-61
2021/04/02 10:11:13;;;;;;;60.97;27.70;;;16.50;58.30;;;;;;5064642;28;20182;-61
2021/04/02 10:13:38;;;;;;;57.53;27.80;;;16.50;57.90;;;;;;5062768;28;20254;-61
2021/04/02 10:16:05;;;;;;;61.00;29.30;;;16.70;57.70;;;;;;5064455;28;20238;-62
2021/04/02 10:18:31;;;;;;;59.00;28.83;;;16.80;56.10;;;;;;5063194;28;20174;-61
2021/04/02 10:20:57;;;;;;;50.27;26.93;;;16.80;54.40;;;;;;5073016;28;20413;-62
2021/04/02 10:23:23;;;;;;;47.30;25.50;;;16.90;55.10;;;;;;5072337;28;20496;-62
2021/04/02 10:25:49;;;;;;;53.33;26.50;;;16.90;55.30;;;;;;5074883;28;20254;-61
2021/04/02 10:28:14;;;;;;;43.53;24.30;;;17.10;56.50;;;;;;5076144;28;20473;-62
2021/04/02 10:30:41;;;;;;;49.47;25.63;;;17.20;56.70;;;;;;5081793;28;20192;-62
2021/04/02 10:33:07;;;;;;;51.33;24.23;;;17.30;56.20;;;;;;5080808;28;20213;-62
2021/04/02 10:35:35;;;;;;;44.87;24.33;;;17.40;56.00;;;;;;5077364;28;20502;-62
2021/04/02 10:38:00;;;;;;;39.00;22.97;;;17.60;55.50;;;;;;5079188;28;20170;-63
2021/04/02 10:40:26;;;;;;;48.47;22.67;;;17.70;55.40;;;;;;5065961;28;20439;-62
2021/04/02 10:42:52;;;;;;;40.13;21.73;;;17.80;54.70;;;;;;5064470;28;20178;-61
2021/04/02 10:45:18;;;;;;;35.17;20.07;;;17.80;53.60;;;;;;5060247;28;20182;-61
2021/04/02 10:47:44;;;;;;;50.63;20.80;;;17.80;53.80;;;;;;5063031;28;20433;-62
2021/04/02 10:50:11;;;;;;;44.63;21.57;;;17.80;54.20;;;;;;5058028;28;20193;-61
2021/04/02 10:52:37;;;;;;;46.30;20.77;;;17.90;52.60;;;;;;5057321;28;20651;-63
2021/04/02 10:55:04;;;;;;;36.53;19.30;;;17.90;51.90;;;;;;5057466;28;20523;-63
2021/04/02 10:57:33;;;;;;;38.13;20.00;;;17.90;53.30;;;;;;5060082;28;20221;-64
2021/04/02 10:59:58;;;;;;;40.30;20.70;;;18.00;53.10;;;;;;5063189;28;20462;-62
2021/04/02 11:02:24;;;;;;;41.63;20.67;;;18.10;51.30;;;;;;5061160;28;20482;-62
2021/04/02 11:04:49;;;;;;;39.60;18.90;;;18.20;50.30;;;;;;5054864;28;20642;-62
2021/04/02 11:07:16;;;;;;;41.80;19.33;;;18.20;51.10;;;;;;5063884;28;20194;-61
2021/04/02 11:09:42;;;;;;;37.87;16.83;;;18.30;50.10;;;;;;5055743;28;20174;-61
2021/04/02 11:12:08;;;;;;;37.13;17.67;;;18.40;50.40;;;;;;5062707;28;20448;-60
2021/04/02 11:14:34;;;;;;;39.47;18.87;;;18.50;50.20;;;;;;5058194;28;20429;-61
2021/04/02 11:16:59;;;;;;;44.43;20.93;;;18.50;48.90;;;;;;5058868;28;20476;-62
2021/04/02 11:19:25;;;;;;;46.63;20.00;;;18.60;49.20;;;;;;5057512;28;20182;-62
2021/04/02 11:21:51;;;;;;;42.53;19.53;;;18.60;49.00;;;;;;5057363;28;20186;-61
2021/04/02 11:24:16;;;;;;;47.60;20.80;;;18.70;48.70;;;;;;5058225;28;20182;-62
2021/04/02 11:26:42;;;;;;;41.63;20.70;;;18.80;48.00;;;;;;5055301;28;20202;-62
2021/04/02 11:29:08;;;;;;;48.17;21.50;;;18.80;47.20;;;;;;5060198;28;20193;-61
2021/04/02 11:31:34;;;;;;;49.57;20.67;;;18.80;46.40;;;;;;5059529;28;20437;-62
2021/04/02 11:33:59;;;;;;;49.70;16.73;;;18.80;45.60;;;;;;5055224;28;20186;-61
2021/04/02 11:36:25;;;;;;;39.73;14.10;;;18.80;42.80;;;;;;5057627;28;20721;-61
2021/04/02 11:38:51;;;;;;;48.13;15.27;;;18.90;42.80;;;;;;5057082;28;20297;-61
2021/04/02 11:41:16;;;;;;;40.67;15.70;;;19.00;43.60;;;;;;5056736;28;20209;-62
2021/04/02 11:43:42;;;;;;;55.00;17.50;;;19.10;43.10;;;;;;5060323;28;20810;-61
2021/04/02 11:46:08;;;;;;;29.87;16.90;;;19.10;42.90;;;;;;5054358;28;20202;-62
2021/04/02 11:48:34;;;;;;;32.43;15.77;;;19.20;45.40;;;;;;5056781;28;20190;-61
2021/04/02 11:51:00;;;;;;;30.67;16.07;;;19.40;46.10;;;;;;5054755;28;20194;-61
2021/04/02 11:53:25;;;;;;;28.03;15.87;;;19.50;46.00;;;;;;5052321;28;20190;-61
2021/04/02 11:55:51;;;;;;;34.73;17.77;;;19.60;46.10;;;;;;5056539;28;20214;-62
2021/04/02 11:58:17;;;;;;;32.73;16.90;;;19.70;46.00;;;;;;5056435;28;20939;-62
2021/04/02 12:00:43;;;;;;;31.80;15.43;;;19.80;45.60;;;;;;5055446;28;20231;-63
2021/04/02 12:03:09;;;;;;;26.87;14.60;;;19.80;44.80;;;;;;5055652;28;20253;-62
2021/04/02 12:05:35;;;;;;;28.93;15.90;;;19.80;44.50;;;;;;5059750;28;20445;-62
2021/04/02 12:08:01;;;;;;;38.30;16.80;;;19.80;44.60;;;;;;5055679;28;20429;-62
2021/04/02 12:10:26;;;;;;;33.43;15.70;;;19.70;43.50;;;;;;5061555;28;20655;-61
2021/04/02 12:12:52;;;;;;;33.33;16.97;;;19.60;44.20;;;;;;5061685;28;20657;-61
2021/04/02 12:15:18;;;;;;;30.03;17.00;;;19.50;44.00;;;;;;5057316;28;20242;-61
2021/04/02 12:17:43;;;;;;;33.40;15.73;;;19.50;43.90;;;;;;5058563;28;20546;-60
2021/04/02 12:20:12;;;;;;;34.20;17.20;;;19.50;44.00;;;;;;5059366;28;20167;-60
2021/04/02 12:22:38;;;;;;;36.07;16.87;;;19.60;44.80;;;;;;5054888;28;20164;-61
2021/04/02 12:25:07;;;;;;;32.23;15.47;;;19.70;43.70;;;;;;5061956;28;20954;-60
2021/04/02 12:27:33;;;;;;;34.23;16.97;;;19.80;44.40;;;;;;5057446;28;20532;-61
2021/04/02 12:29:59;;;;;;;45.83;19.00;;;19.80;44.10;;;;;;5058974;28;20440;-61
2021/04/02 12:32:25;;;;;;;33.77;17.03;;;19.80;44.10;;;;;;5055829;28;20420;-60
2021/04/02 12:34:50;;;;;;;32.10;17.33;;;19.90;44.40;;;;;;5057591;28;20622;-61
2021/04/02 12:37:16;;;;;;;31.90;16.97;;;19.90;43.90;;;;;;5054474;28;21118;-61
2021/04/02 12:39:42;;;;;;;41.90;18.00;;;19.90;43.50;;;;;;5054068;28;20674;-63
2021/04/02 12:42:09;;;;;;;37.07;17.00;;;19.90;44.10;;;;;;5057227;28;20388;-62